createdAt,value
2022-09-05T00:00:20.040Z,15.33
2022-09-05T00:01:27.607Z,15.31
2022-09-05T00:02:21.074Z,15.33
2022-09-05T00:03:20.077Z,15.36
2022-09-05T00:04:25.266Z,15.36
2022-09-05T00:05:20.980Z,15.35
2022-09-05T00:06:19.952Z,15.37
2022-09-05T00:07:50.655Z,15.39
2022-09-05T00:08:20.929Z,15.39
2022-09-05T00:09:19.920Z,15.40
2022-09-05T00:10:19.916Z,15.40
2022-09-05T00:11:40.969Z,15.37
2022-09-05T00:12:20.889Z,15.35
2022-09-05T00:13:19.914Z,15.35
2022-09-05T00:15:14.392Z,15.33
2022-09-05T00:15:21.660Z,15.33
2022-09-05T00:16:19.890Z,15.37
2022-09-05T00:17:19.850Z,15.36
2022-09-05T00:23:39.982Z,15.33
2022-09-05T00:24:19.420Z,15.31
2022-09-05T00:24:20.463Z,15.33
2022-09-05T00:24:29.055Z,15.35
2022-09-05T00:24:29.712Z,15.33
2022-09-05T00:24:33.003Z,15.33
2022-09-05T00:24:45.751Z,15.35
2022-09-05T00:25:31.393Z,15.35
2022-09-05T00:26:20.730Z,15.40
2022-09-05T00:27:19.711Z,15.42
2022-09-05T00:28:25.680Z,15.46
2022-09-05T00:29:47.824Z,15.47
2022-09-05T00:31:08.796Z,15.49
2022-09-05T00:31:54.744Z,15.49
2022-09-05T00:32:20.714Z,15.49
2022-09-05T00:33:19.641Z,15.49
2022-09-05T00:34:19.662Z,15.47
2022-09-05T00:35:19.621Z,15.47
2022-09-05T00:36:20.611Z,15.47
2022-09-05T00:37:19.600Z,15.51
2022-09-05T00:38:19.590Z,15.55
2022-09-05T00:39:19.582Z,15.54
2022-09-05T00:40:19.711Z,15.58
2022-09-05T00:41:19.582Z,15.59
2022-09-05T00:42:19.542Z,15.58
2022-09-05T00:43:19.555Z,15.57
2022-09-05T00:44:19.535Z,15.54
2022-09-05T00:45:20.034Z,15.54
2022-09-05T00:46:19.538Z,15.51
2022-09-05T00:47:19.493Z,15.49
2022-09-05T00:48:19.482Z,15.46
2022-09-05T00:49:19.462Z,15.43
2022-09-05T00:50:19.452Z,15.40
2022-09-05T00:51:19.463Z,15.37
2022-09-05T00:52:19.433Z,15.36
2022-09-05T00:53:19.458Z,15.33
2022-09-05T00:54:19.405Z,15.27
2022-09-05T00:55:20.392Z,15.27
2022-09-05T00:56:19.383Z,15.25
2022-09-05T00:57:19.451Z,15.25
2022-09-05T00:58:19.363Z,15.22
2022-09-05T00:59:19.343Z,15.21
2022-09-05T01:00:19.336Z,15.21
2022-09-05T01:01:21.362Z,15.21
2022-09-05T01:02:19.438Z,15.21
2022-09-05T01:03:19.384Z,15.19
2022-09-05T01:04:19.298Z,15.17
2022-09-05T01:05:19.281Z,15.15
2022-09-05T01:06:19.273Z,15.14
2022-09-05T01:07:19.262Z,15.11
2022-09-05T01:08:19.248Z,15.15
2022-09-05T01:09:19.255Z,15.14
2022-09-05T01:10:19.225Z,15.10
2022-09-05T01:11:19.214Z,15.06
2022-09-05T01:12:19.203Z,15.02
2022-09-05T01:13:19.299Z,14.99
2022-09-05T01:14:19.184Z,14.94
2022-09-05T01:15:19.183Z,14.89
2022-09-05T01:16:19.207Z,14.86
2022-09-05T01:17:19.144Z,14.82
2022-09-05T01:18:19.135Z,14.78
2022-09-05T01:19:19.130Z,14.73
2022-09-05T01:20:20.572Z,14.63
2022-09-05T01:21:19.097Z,14.58
2022-09-05T01:22:19.103Z,14.50
2022-09-05T01:23:19.075Z,14.45
2022-09-05T01:24:28.176Z,14.44
2022-09-05T01:25:20.085Z,14.37
2022-09-05T01:26:19.045Z,14.32
2022-09-05T01:27:19.028Z,14.37
2022-09-05T01:29:13.324Z,14.45
2022-09-05T01:29:20.142Z,14.48
2022-09-05T01:30:18.997Z,14.51
2022-09-05T01:31:19.061Z,14.58
2022-09-05T01:32:18.975Z,14.59
2022-09-05T01:33:18.964Z,14.59
2022-09-05T01:34:18.946Z,14.59
2022-09-05T01:35:19.937Z,14.60
2022-09-05T01:36:18.926Z,14.59
2022-09-05T01:37:32.843Z,14.58
2022-09-05T01:38:19.907Z,14.54
2022-09-05T01:40:11.570Z,14.50
2022-09-05T01:40:19.945Z,14.47
2022-09-05T01:41:19.523Z,14.44
2022-09-05T01:42:18.857Z,14.43
2022-09-05T01:43:18.868Z,14.37
2022-09-05T01:44:18.836Z,14.35
2022-09-05T01:45:18.828Z,14.33
2022-09-05T01:46:18.883Z,14.30
2022-09-05T01:47:29.507Z,14.28
2022-09-05T01:48:19.817Z,14.29
2022-09-05T01:49:18.776Z,14.30
2022-09-05T01:50:18.766Z,14.32
2022-09-05T01:51:28.259Z,14.36
2022-09-05T01:52:19.748Z,14.40
2022-09-05T01:53:18.729Z,14.43
2022-09-05T01:54:26.430Z,14.37
2022-09-05T01:55:19.709Z,14.37
2022-09-05T01:56:18.697Z,14.40
2022-09-05T01:57:19.725Z,14.45
2022-09-05T01:58:18.677Z,14.45
2022-09-05T01:59:18.661Z,14.47
2022-09-05T02:00:18.698Z,14.48
2022-09-05T02:01:32.056Z,14.45
2022-09-05T02:02:19.691Z,14.45
2022-09-05T02:03:18.675Z,14.48
2022-09-05T02:04:18.606Z,14.50
2022-09-05T02:05:20.724Z,14.50
2022-09-05T02:06:19.609Z,14.51
2022-09-05T02:07:30.359Z,14.50
2022-09-05T02:08:19.566Z,14.47
2022-09-05T02:09:18.547Z,14.44
2022-09-05T02:10:18.538Z,14.43
2022-09-05T02:11:35.735Z,14.37
2022-09-05T02:12:19.518Z,14.36
2022-09-05T02:13:18.498Z,14.33
2022-09-05T02:14:33.856Z,14.35
2022-09-05T02:15:19.482Z,14.36
2022-09-05T02:16:18.526Z,14.36
2022-09-05T02:17:47.909Z,14.37
2022-09-05T02:18:19.438Z,14.37
2022-09-05T02:19:18.428Z,14.40
2022-09-05T02:20:23.815Z,14.37
2022-09-05T02:21:19.410Z,14.33
2022-09-05T02:22:18.403Z,14.29
2022-09-05T02:23:27.385Z,14.26
2022-09-05T02:24:19.370Z,14.23
2022-09-05T02:26:01.229Z,14.22
2022-09-05T02:26:19.352Z,14.17
2022-09-05T02:27:31.860Z,14.14
2022-09-05T02:28:19.350Z,14.12
2022-09-05T02:29:29.109Z,14.10
2022-09-05T02:30:19.322Z,14.05
2022-09-05T02:31:19.520Z,14.05
2022-09-05T02:32:18.287Z,14.05
2022-09-05T02:33:18.272Z,14.05
2022-09-05T02:34:18.280Z,14.03
2022-09-05T02:35:18.248Z,14.00
2022-09-05T02:36:18.239Z,13.99
2022-09-05T02:37:26.272Z,13.96
2022-09-05T02:40:00.961Z,13.96
2022-09-05T02:45:01.137Z,13.93
2022-09-05T02:45:01.689Z,13.96
2022-09-05T02:45:08.516Z,13.93
2022-09-05T02:45:17.725Z,13.89
2022-09-05T02:45:20.071Z,13.90
2022-09-05T02:45:21.362Z,13.89
2022-09-05T02:45:25.680Z,13.87
2022-09-05T02:46:19.176Z,13.89
2022-09-05T02:47:18.114Z,13.89
2022-09-05T02:48:18.101Z,13.92
2022-09-05T02:50:29.584Z,13.95
2022-09-05T02:54:42.869Z,13.95
2022-09-05T02:57:24.866Z,13.95
2022-09-05T02:57:26.203Z,13.95
2022-09-05T02:57:33.359Z,13.93
2022-09-05T02:57:34.880Z,13.93
2022-09-05T02:57:36.694Z,13.89
2022-09-05T02:57:40.793Z,13.90
2022-09-05T02:57:46.411Z,13.90
2022-09-05T02:58:19.066Z,13.87
2022-09-05T02:59:18.308Z,13.90
2022-09-05T03:00:18.969Z,13.90
2022-09-05T03:01:17.980Z,13.92
2022-09-05T03:02:25.174Z,13.95
2022-09-05T03:03:18.922Z,13.99
2022-09-05T03:04:17.921Z,14.03
2022-09-05T03:05:17.901Z,14.04
2022-09-05T03:06:17.891Z,14.05
2022-09-05T03:07:18.911Z,14.04
2022-09-05T03:08:17.872Z,14.04
2022-09-05T03:09:17.862Z,14.05
2022-09-05T03:10:17.849Z,14.05
2022-09-05T03:11:17.850Z,14.04
2022-09-05T03:12:29.287Z,14.04
2022-09-05T03:13:18.841Z,14.04
2022-09-05T03:14:17.803Z,14.05
2022-09-05T03:15:18.440Z,14.04
2022-09-05T03:16:17.799Z,14.00
2022-09-05T03:17:17.772Z,14.00
2022-09-05T03:18:20.916Z,13.99
2022-09-05T03:19:18.751Z,13.99
2022-09-05T03:20:17.733Z,13.99
2022-09-05T03:21:17.722Z,13.99
2022-09-05T03:22:17.711Z,13.99
2022-09-05T03:23:17.718Z,13.97
2022-09-05T03:24:17.721Z,14.00
2022-09-05T03:25:17.682Z,14.00
2022-09-05T03:26:17.662Z,14.00
2022-09-05T03:27:17.652Z,14.05
2022-09-05T03:28:17.642Z,14.10
2022-09-05T03:29:17.632Z,14.11
2022-09-05T03:30:17.642Z,14.14
2022-09-05T03:31:22.959Z,14.18
2022-09-05T03:32:18.592Z,14.18
2022-09-05T03:33:17.582Z,14.22
2022-09-05T03:34:17.572Z,14.22
2022-09-05T03:35:17.593Z,14.22
2022-09-05T03:36:18.954Z,14.17
2022-09-05T03:37:17.546Z,14.20
2022-09-05T03:38:17.527Z,14.22
2022-09-05T03:39:17.521Z,14.23
2022-09-05T03:40:17.554Z,14.25
2022-09-05T03:41:17.512Z,14.23
2022-09-05T03:42:17.484Z,14.25
2022-09-05T03:43:17.472Z,14.23
2022-09-05T03:44:17.454Z,14.26
2022-09-05T03:45:27.007Z,14.25
2022-09-05T03:46:18.478Z,14.28
2022-09-05T03:47:17.442Z,14.28
2022-09-05T03:48:28.619Z,14.28
2022-09-05T03:51:41.756Z,14.28
2022-09-05T03:55:38.771Z,14.26
2022-09-05T03:57:11.650Z,14.25
2022-09-05T03:57:11.774Z,14.32
2022-09-05T03:57:16.236Z,14.35
2022-09-05T03:57:19.610Z,14.28
2022-09-05T03:57:21.024Z,14.25
2022-09-05T03:57:23.588Z,14.35
2022-09-05T03:57:33.763Z,14.35
2022-09-05T03:58:18.360Z,14.32
2022-09-05T03:59:17.293Z,14.29
2022-09-05T04:00:17.282Z,14.25
2022-09-05T04:04:14.252Z,14.22
2022-09-05T04:06:11.632Z,14.18
2022-09-05T04:08:07.370Z,14.15
2022-09-05T04:08:13.808Z,14.12
2022-09-05T04:08:15.792Z,14.03
2022-09-05T04:08:20.594Z,14.07
2022-09-05T04:08:23.965Z,14.11
2022-09-05T04:08:31.484Z,13.96
2022-09-05T04:09:31.571Z,13.93
2022-09-05T04:10:18.243Z,13.87
2022-09-05T04:11:17.154Z,13.86
2022-09-05T04:12:17.134Z,13.81
2022-09-05T04:13:17.244Z,13.83
2022-09-05T04:14:17.145Z,13.81
2022-09-05T04:15:17.104Z,13.81
2022-09-05T04:16:17.149Z,13.79
2022-09-05T04:17:17.083Z,13.79
2022-09-05T04:18:17.066Z,13.81
2022-09-05T04:19:18.085Z,13.81
2022-09-05T04:20:17.056Z,13.85
2022-09-05T04:21:17.045Z,13.89
2022-09-05T04:22:17.024Z,13.92
2022-09-05T04:23:17.016Z,13.95
2022-09-05T04:24:17.009Z,13.96
2022-09-05T04:25:17.005Z,13.95
2022-09-05T04:26:16.976Z,13.93
2022-09-05T04:27:16.966Z,13.93
2022-09-05T04:28:16.965Z,13.93
2022-09-05T04:29:16.955Z,13.95
2022-09-05T04:30:38.830Z,13.95
2022-09-05T04:31:17.951Z,13.96
2022-09-05T04:32:19.211Z,13.99
2022-09-05T04:33:16.895Z,14.04
2022-09-05T04:34:16.887Z,14.07
2022-09-05T04:35:16.876Z,14.10
2022-09-05T04:36:18.056Z,14.10
2022-09-05T04:37:16.856Z,14.10
2022-09-05T04:38:16.846Z,14.10
2022-09-05T04:39:16.896Z,14.10
2022-09-05T04:40:16.822Z,14.05
2022-09-05T04:41:16.826Z,14.04
2022-09-05T04:42:17.087Z,14.04
2022-09-05T04:43:16.806Z,14.00
2022-09-05T04:44:16.768Z,13.99
2022-09-05T04:45:24.120Z,14.00
2022-09-05T04:46:19.120Z,14.03
2022-09-05T04:47:16.736Z,13.99
2022-09-05T04:48:20.368Z,13.99
2022-09-05T04:49:17.716Z,13.97
2022-09-05T04:50:20.229Z,13.97
2022-09-05T04:51:17.696Z,13.97
2022-09-05T04:52:31.136Z,13.97
2022-09-05T04:53:17.667Z,13.96
2022-09-05T04:54:16.656Z,13.95
2022-09-05T04:55:16.646Z,13.96
2022-09-05T04:56:16.628Z,13.97
2022-09-05T04:57:16.625Z,13.97
2022-09-05T04:58:16.635Z,13.99
2022-09-05T05:01:25.826Z,13.99
2022-09-05T05:06:01.810Z,14.03
2022-09-05T05:06:02.264Z,14.00
2022-09-05T05:06:03.772Z,14.04
2022-09-05T05:06:09.764Z,14.12
2022-09-05T05:06:11.033Z,14.07
2022-09-05T05:06:16.274Z,14.10
2022-09-05T05:06:31.564Z,14.12
2022-09-05T05:07:17.605Z,14.15
2022-09-05T05:08:16.603Z,14.15
2022-09-05T05:09:17.488Z,14.15
2022-09-05T05:13:45.032Z,14.12
2022-09-05T05:17:54.815Z,14.12
2022-09-05T05:18:00.142Z,14.12
2022-09-05T05:18:00.551Z,14.18
2022-09-05T05:18:03.136Z,14.15
2022-09-05T05:18:07.036Z,14.22
2022-09-05T05:18:07.467Z,14.23
2022-09-05T05:18:11.477Z,14.20
2022-09-05T05:18:53.187Z,14.22
2022-09-05T05:19:21.517Z,14.20
2022-09-05T05:20:41.777Z,14.22
2022-09-05T05:21:17.348Z,14.22
2022-09-05T05:22:16.358Z,14.25
2022-09-05T05:23:16.328Z,14.26
2022-09-05T05:24:16.321Z,14.32
2022-09-05T05:25:17.300Z,14.35
2022-09-05T05:26:16.287Z,14.41
2022-09-05T05:27:16.281Z,14.47
2022-09-05T05:28:24.507Z,14.53
2022-09-05T05:29:19.542Z,14.59
2022-09-05T05:30:16.257Z,14.66
2022-09-05T05:31:16.298Z,14.72
2022-09-05T05:32:16.219Z,14.81
2022-09-05T05:33:17.270Z,14.86
2022-09-05T05:34:24.408Z,14.92
2022-09-05T05:35:17.199Z,14.97
2022-09-05T05:36:16.168Z,14.99
2022-09-05T05:37:23.213Z,14.99
2022-09-05T05:38:17.774Z,15.02
2022-09-05T05:39:16.163Z,15.03
2022-09-05T05:40:16.124Z,15.06
2022-09-05T05:41:16.113Z,15.10
2022-09-05T05:42:20.910Z,15.14
2022-09-05T05:43:17.123Z,15.19
2022-09-05T05:44:16.127Z,15.21
2022-09-05T05:45:16.103Z,15.24
2022-09-05T05:46:16.107Z,15.27
2022-09-05T05:47:16.053Z,15.29
2022-09-05T05:48:16.035Z,15.33
2022-09-05T05:49:16.027Z,15.36
2022-09-05T05:50:16.014Z,15.39
2022-09-05T05:51:16.025Z,15.43
2022-09-05T05:52:15.993Z,15.46
2022-09-05T05:53:40.981Z,15.52
2022-09-05T05:54:16.966Z,15.54
2022-09-05T05:55:51.357Z,15.59
2022-09-05T05:56:16.974Z,15.64
2022-09-05T05:57:15.933Z,15.68
2022-09-05T05:58:15.928Z,15.75
2022-09-05T05:59:15.915Z,15.79
2022-09-05T06:00:15.895Z,15.88
2022-09-05T06:01:37.340Z,15.95
2022-09-05T06:02:17.000Z,16.02
2022-09-05T06:03:25.066Z,16.12
2022-09-05T06:04:16.927Z,16.23
2022-09-05T06:05:15.844Z,16.32
2022-09-05T06:06:15.825Z,16.39
2022-09-05T06:07:15.824Z,16.43
2022-09-05T06:10:31.792Z,16.54
2022-09-05T06:14:49.297Z,16.65
2022-09-05T06:14:49.534Z,16.71
2022-09-05T06:14:56.701Z,16.97
2022-09-05T06:14:57.362Z,16.86
2022-09-05T06:15:00.011Z,16.93
2022-09-05T06:15:00.722Z,16.78
2022-09-05T06:15:22.387Z,17.04
2022-09-05T06:16:16.739Z,17.11
2022-09-05T06:17:15.709Z,17.22
2022-09-05T06:18:15.695Z,17.23
2022-09-05T06:19:15.707Z,17.31
2022-09-05T06:22:04.998Z,17.39
2022-09-05T06:22:10.819Z,17.49
2022-09-05T06:22:20.555Z,17.52
2022-09-05T06:23:34.801Z,17.52
2022-09-05T06:24:16.645Z,17.67
2022-09-05T06:25:17.324Z,17.82
2022-09-05T06:26:15.597Z,17.95
2022-09-05T06:27:15.589Z,18.11
2022-09-05T06:28:19.286Z,18.10
2022-09-05T06:29:15.571Z,17.98
2022-09-05T06:30:15.578Z,17.89
2022-09-05T06:31:29.172Z,17.86
2022-09-05T06:32:16.598Z,18.15
2022-09-05T06:33:15.527Z,18.63
2022-09-05T06:34:33.192Z,18.49
2022-09-05T06:35:16.529Z,18.33
2022-09-05T06:36:15.489Z,18.13
2022-09-05T06:37:16.590Z,17.90
2022-09-05T06:38:15.468Z,17.78
2022-09-05T06:39:15.458Z,17.63
2022-09-05T06:40:15.447Z,17.48
2022-09-05T06:41:15.450Z,17.42
2022-09-05T06:42:40.616Z,17.33
2022-09-05T06:43:16.420Z,17.29
2022-09-05T06:44:15.389Z,17.30
2022-09-05T06:45:27.029Z,17.33
2022-09-05T06:46:25.424Z,17.33
2022-09-05T06:47:33.632Z,17.51
2022-09-05T06:48:21.431Z,17.80
2022-09-05T06:49:29.762Z,17.76
2022-09-05T06:50:24.637Z,18.70
2022-09-05T06:51:16.318Z,19.81
2022-09-05T06:52:29.483Z,20.56
2022-09-05T06:53:20.051Z,21.12
2022-09-05T06:54:15.280Z,21.61
2022-09-05T06:55:15.271Z,21.93
2022-09-05T06:56:15.770Z,22.20
2022-09-05T06:57:16.351Z,22.83
2022-09-05T06:58:15.231Z,23.32
2022-09-05T06:59:15.231Z,23.81
2022-09-05T07:00:21.776Z,23.71
2022-09-05T07:01:16.357Z,23.77
2022-09-05T07:02:15.257Z,23.65
2022-09-05T07:03:15.253Z,23.88
2022-09-05T07:05:23.721Z,24.48
2022-09-05T07:05:37.450Z,25.07
2022-09-05T07:06:19.522Z,25.43
2022-09-05T07:07:17.210Z,25.62
2022-09-05T07:08:35.734Z,26.05
2022-09-05T07:09:16.145Z,26.25
2022-09-05T07:10:35.027Z,26.37
2022-09-05T07:11:17.196Z,26.37
2022-09-05T07:12:15.084Z,26.44
2022-09-05T07:13:15.073Z,26.06
2022-09-05T07:14:15.054Z,26.00
2022-09-05T07:15:15.065Z,26.18
2022-09-05T07:16:15.071Z,26.18
2022-09-05T07:17:15.025Z,26.19
2022-09-05T07:18:15.028Z,26.37
2022-09-05T07:19:14.995Z,26.43
2022-09-05T07:20:15.015Z,26.66
2022-09-05T07:21:16.673Z,27.07
2022-09-05T07:22:29.418Z,27.11
2022-09-05T07:23:20.314Z,27.10
2022-09-05T07:24:44.210Z,26.71
2022-09-05T07:25:18.566Z,26.60
2022-09-05T07:26:19.093Z,26.22
2022-09-05T07:27:15.917Z,26.00
2022-09-05T07:28:28.209Z,26.34
2022-09-05T07:29:15.888Z,26.88
2022-09-05T07:30:14.898Z,27.00
2022-09-05T07:31:14.920Z,27.26
2022-09-05T07:32:15.937Z,27.45
2022-09-05T07:33:14.851Z,27.64
2022-09-05T07:34:20.861Z,28.02
2022-09-05T07:35:15.833Z,28.54
2022-09-05T07:36:14.811Z,29.08
2022-09-05T07:37:16.235Z,29.45
2022-09-05T07:38:14.793Z,29.51
2022-09-05T07:39:28.118Z,29.66
2022-09-05T07:40:25.093Z,29.81
2022-09-05T07:41:15.762Z,29.98
2022-09-05T07:42:14.752Z,30.25
2022-09-05T07:43:18.603Z,30.15
2022-09-05T07:44:14.735Z,30.19
2022-09-05T07:45:14.724Z,30.16
2022-09-05T07:46:14.716Z,30.31
2022-09-05T07:47:14.693Z,30.06
2022-09-05T07:48:14.693Z,29.94
2022-09-05T07:49:14.718Z,30.13
2022-09-05T07:52:37.286Z,30.39
2022-09-05T07:56:20.657Z,30.68
2022-09-05T07:56:51.146Z,31.10
2022-09-05T07:56:56.795Z,30.91
2022-09-05T07:56:59.648Z,30.85
2022-09-05T07:57:05.171Z,30.65
2022-09-05T07:57:08.985Z,30.31
2022-09-05T07:57:30.291Z,29.90
2022-09-05T07:58:15.584Z,29.75
2022-09-05T07:59:14.567Z,29.51
2022-09-05T08:00:25.516Z,29.54
2022-09-05T08:01:15.590Z,29.91
2022-09-05T08:02:14.538Z,30.37
2022-09-05T08:03:14.517Z,30.83
2022-09-05T08:04:14.520Z,31.31
2022-09-05T08:05:14.595Z,31.66
2022-09-05T08:06:15.489Z,31.81
2022-09-05T08:07:48.272Z,31.81
2022-09-05T08:08:15.471Z,31.47
2022-09-05T08:10:05.583Z,30.69
2022-09-05T08:10:15.971Z,30.24
2022-09-05T08:11:24.878Z,30.06
2022-09-05T08:12:16.142Z,30.34
2022-09-05T08:13:23.853Z,30.53
2022-09-05T08:14:43.408Z,30.51
2022-09-05T08:15:16.516Z,30.61
2022-09-05T08:16:14.407Z,30.94
2022-09-05T08:17:14.382Z,31.21
2022-09-05T08:18:14.366Z,31.58
2022-09-05T08:19:14.353Z,31.81
2022-09-05T08:20:14.346Z,31.70
2022-09-05T08:21:14.383Z,31.51
2022-09-05T08:22:14.324Z,31.20
2022-09-05T08:23:14.306Z,31.39
2022-09-05T08:24:14.526Z,31.87
2022-09-05T08:25:14.295Z,31.90
2022-09-05T08:26:14.289Z,32.16
2022-09-05T08:27:16.201Z,32.53
2022-09-05T08:28:14.258Z,33.00
2022-09-05T08:29:14.248Z,33.37
2022-09-05T08:30:24.875Z,33.55
2022-09-05T08:31:15.283Z,33.19
2022-09-05T08:32:14.216Z,33.17
2022-09-05T08:33:14.239Z,33.00
2022-09-05T08:34:14.201Z,33.14
2022-09-05T08:35:14.191Z,32.90
2022-09-05T08:36:14.179Z,32.46
2022-09-05T08:37:17.804Z,31.85
2022-09-05T08:38:15.194Z,31.66
2022-09-05T08:39:14.149Z,31.93
2022-09-05T08:40:14.163Z,32.40
2022-09-05T08:41:14.120Z,32.85
2022-09-05T08:42:14.122Z,33.34
2022-09-05T08:45:46.372Z,33.58
2022-09-05T08:46:41.809Z,34.11
2022-09-05T08:46:43.803Z,33.65
2022-09-05T08:46:46.478Z,33.87
2022-09-05T08:47:15.097Z,34.08
2022-09-05T08:48:14.062Z,33.92
2022-09-05T08:50:08.043Z,34.08
2022-09-05T08:50:15.035Z,34.38
2022-09-05T08:51:14.023Z,34.35
2022-09-05T08:52:14.024Z,34.40
2022-09-05T08:53:18.603Z,34.42
2022-09-05T08:54:15.016Z,34.20
2022-09-05T08:55:13.981Z,33.87
2022-09-05T08:56:18.113Z,33.65
2022-09-05T08:57:14.955Z,33.71
2022-09-05T08:58:13.944Z,33.53
2022-09-05T08:59:31.546Z,32.18
2022-09-05T09:00:20.300Z,31.70
2022-09-05T09:01:14.976Z,31.66
2022-09-05T09:02:44.678Z,30.57
2022-09-05T09:03:15.068Z,29.76
2022-09-05T09:04:13.951Z,29.26
2022-09-05T09:05:14.318Z,28.96
2022-09-05T09:06:15.599Z,28.57
2022-09-05T09:07:47.285Z,28.02
2022-09-05T09:08:15.687Z,27.65
2022-09-05T09:09:13.835Z,27.45
2022-09-05T09:10:13.889Z,27.75
2022-09-05T09:11:14.849Z,28.04
2022-09-05T09:12:13.799Z,28.74
2022-09-05T09:13:13.790Z,29.13
2022-09-05T09:14:13.781Z,29.38
2022-09-05T09:15:14.760Z,29.91
2022-09-05T09:16:13.787Z,30.39
2022-09-05T09:17:13.789Z,30.63
2022-09-05T09:18:13.732Z,30.92
2022-09-05T09:19:13.732Z,31.44
2022-09-05T09:20:13.814Z,31.94
2022-09-05T09:21:13.702Z,32.38
2022-09-05T09:22:13.691Z,32.78
2022-09-05T09:23:31.960Z,32.95
2022-09-05T09:24:14.673Z,33.30
2022-09-05T09:25:15.872Z,33.52
2022-09-05T09:26:13.653Z,33.64
2022-09-05T09:27:13.654Z,33.64
2022-09-05T09:28:49.722Z,33.53
2022-09-05T09:29:14.615Z,33.39
2022-09-05T09:30:13.659Z,33.27
2022-09-05T09:31:13.636Z,32.93
2022-09-05T09:32:13.587Z,32.92
2022-09-05T09:33:13.565Z,32.93
2022-09-05T09:34:13.588Z,32.83
2022-09-05T09:35:13.547Z,32.14
2022-09-05T09:36:13.544Z,31.39
2022-09-05T09:37:13.528Z,30.97
2022-09-05T09:38:13.518Z,30.55
2022-09-05T09:39:37.032Z,30.19
2022-09-05T09:40:14.620Z,29.69
2022-09-05T09:41:13.479Z,29.45
2022-09-05T09:42:15.007Z,29.20
2022-09-05T09:43:14.470Z,29.08
2022-09-05T09:44:13.449Z,29.17
2022-09-05T09:45:27.915Z,29.41
2022-09-05T09:46:14.487Z,29.65
2022-09-05T09:47:13.422Z,29.66
2022-09-05T09:48:13.409Z,29.31
2022-09-05T09:49:23.305Z,29.19
2022-09-05T09:50:14.391Z,28.97
2022-09-05T09:51:13.391Z,28.78
2022-09-05T09:52:19.422Z,28.78
2022-09-05T09:53:14.351Z,28.75
2022-09-05T09:54:13.342Z,28.60
2022-09-05T09:55:20.970Z,28.49
2022-09-05T09:56:14.342Z,28.44
2022-09-05T09:57:13.312Z,28.27
2022-09-05T09:58:13.312Z,28.32
2022-09-05T09:59:13.282Z,28.39
2022-09-05T10:00:13.273Z,28.51
2022-09-05T10:01:20.252Z,28.59
2022-09-05T10:02:38.194Z,28.69
2022-09-05T10:06:45.329Z,28.88
2022-09-05T10:10:35.058Z,29.16
2022-09-05T10:10:40.366Z,29.08
2022-09-05T10:10:45.060Z,29.31
2022-09-05T10:10:49.525Z,29.14
2022-09-05T10:10:52.198Z,29.36
2022-09-05T10:10:53.742Z,29.24
2022-09-05T10:11:09.669Z,29.23
2022-09-05T10:11:49.997Z,29.13
2022-09-05T10:12:14.253Z,29.08
2022-09-05T10:13:13.565Z,29.22
2022-09-05T10:14:45.140Z,29.36
2022-09-05T10:15:30.226Z,29.49
2022-09-05T10:16:14.156Z,29.49
2022-09-05T10:17:13.085Z,29.39
2022-09-05T10:18:13.126Z,29.41
2022-09-05T10:19:13.066Z,29.20
2022-09-05T10:20:13.103Z,29.19
2022-09-05T10:21:16.952Z,29.20
2022-09-05T10:22:37.433Z,29.35
2022-09-05T10:23:14.039Z,29.53
2022-09-05T10:24:13.009Z,29.56
2022-09-05T10:25:19.242Z,29.69
2022-09-05T10:26:13.987Z,29.72
2022-09-05T10:27:13.119Z,29.53
2022-09-05T10:28:12.970Z,29.13
2022-09-05T10:29:37.605Z,28.88
2022-09-05T10:30:13.956Z,28.72
2022-09-05T10:33:06.643Z,28.63
2022-09-05T10:35:07.536Z,28.57
2022-09-05T10:35:14.104Z,28.52
2022-09-05T10:35:14.234Z,28.62
2022-09-05T10:35:22.346Z,28.69
2022-09-05T10:36:17.315Z,28.81
2022-09-05T10:37:12.862Z,28.81
2022-09-05T10:38:12.851Z,28.89
2022-09-05T10:39:13.577Z,29.01
2022-09-05T10:40:12.851Z,28.96
2022-09-05T10:41:21.428Z,28.97
2022-09-05T10:42:13.813Z,28.96
2022-09-05T10:43:12.795Z,28.86
2022-09-05T10:44:12.784Z,28.82
2022-09-05T10:45:12.795Z,28.86
2022-09-05T10:46:16.974Z,29.02
2022-09-05T10:47:13.816Z,29.10
2022-09-05T10:48:13.687Z,28.97
2022-09-05T10:49:12.726Z,28.85
2022-09-05T10:50:12.724Z,28.76
2022-09-05T10:51:12.726Z,28.81
2022-09-05T10:52:18.881Z,28.96
2022-09-05T10:53:13.705Z,29.13
2022-09-05T10:54:12.675Z,29.27
2022-09-05T10:55:14.942Z,29.32
2022-09-05T10:56:12.656Z,29.42
2022-09-05T10:57:12.657Z,29.47
2022-09-05T10:58:12.637Z,29.42
2022-09-05T11:01:23.467Z,29.41
2022-09-05T11:02:16.122Z,29.45
2022-09-05T11:02:21.118Z,29.56
2022-09-05T11:02:28.498Z,29.47
2022-09-05T11:03:14.954Z,29.61
2022-09-05T11:04:13.657Z,29.73
2022-09-05T11:05:12.645Z,29.82
2022-09-05T11:06:12.547Z,29.88
2022-09-05T11:07:12.560Z,29.91
2022-09-05T11:08:12.524Z,29.91
2022-09-05T11:09:16.419Z,29.88
2022-09-05T11:10:12.511Z,29.88
2022-09-05T11:11:12.488Z,29.82
2022-09-05T11:12:13.490Z,29.73
2022-09-05T11:13:12.491Z,29.76
2022-09-05T11:14:26.270Z,29.84
2022-09-05T11:15:13.440Z,29.87
2022-09-05T11:16:13.664Z,29.94
2022-09-05T11:17:12.412Z,29.86
2022-09-05T11:18:12.412Z,29.75
2022-09-05T11:19:12.414Z,29.66
2022-09-05T11:20:16.298Z,29.53
2022-09-05T11:21:13.373Z,29.45
2022-09-05T11:22:23.477Z,29.39
2022-09-05T11:23:13.354Z,29.39
2022-09-05T11:24:12.383Z,29.53
2022-09-05T11:25:12.337Z,29.51
2022-09-05T11:26:12.323Z,29.54
2022-09-05T11:27:25.658Z,29.56
2022-09-05T11:28:13.294Z,29.57
2022-09-05T11:29:12.288Z,29.68
2022-09-05T11:30:28.145Z,29.81
2022-09-05T11:31:13.310Z,29.81
2022-09-05T11:35:20.341Z,29.61
2022-09-05T11:39:46.916Z,29.76
2022-09-05T11:39:47.068Z,29.66
2022-09-05T11:39:57.875Z,29.72
2022-09-05T11:40:02.464Z,30.02
2022-09-05T11:40:02.703Z,29.95
2022-09-05T11:40:04.611Z,29.82
2022-09-05T11:40:08.378Z,29.95
2022-09-05T11:40:31.320Z,30.05
2022-09-05T11:41:14.296Z,30.05
2022-09-05T11:42:12.182Z,29.98
2022-09-05T11:43:12.135Z,30.05
2022-09-05T11:44:25.825Z,30.06
2022-09-05T11:45:13.117Z,30.15
2022-09-05T11:46:12.175Z,30.15
2022-09-05T11:47:28.421Z,30.12
2022-09-05T11:48:13.081Z,30.13
2022-09-05T11:49:12.066Z,30.13
2022-09-05T11:50:12.056Z,30.13
2022-09-05T11:51:12.046Z,30.19
2022-09-05T11:52:12.047Z,30.25
2022-09-05T11:53:12.020Z,30.30
2022-09-05T11:54:12.008Z,30.24
2022-09-05T11:55:20.620Z,30.23
2022-09-05T11:56:12.988Z,30.25
2022-09-05T11:57:33.920Z,30.23
2022-09-05T11:58:44.253Z,30.06
2022-09-05T11:59:13.867Z,29.84
2022-09-05T12:00:32.066Z,29.69
2022-09-05T12:01:43.337Z,29.69
2022-09-05T12:02:23.350Z,29.76
2022-09-05T12:03:12.932Z,29.88
2022-09-05T12:05:50.667Z,30.13
2022-09-05T12:06:12.916Z,30.27
2022-09-05T12:07:26.318Z,30.40
2022-09-05T12:08:12.851Z,30.51
2022-09-05T12:09:11.870Z,30.55
2022-09-05T12:10:46.798Z,30.62
2022-09-05T12:11:12.822Z,30.61
2022-09-05T12:12:34.160Z,30.55
2022-09-05T12:13:12.802Z,30.53
2022-09-05T12:15:12.806Z,30.50
2022-09-05T12:16:11.792Z,30.27
2022-09-05T12:17:17.053Z,30.13
2022-09-05T12:18:19.419Z,30.02
2022-09-05T12:19:19.265Z,29.90
2022-09-05T12:20:17.003Z,29.90
2022-09-05T12:21:14.411Z,29.93
2022-09-05T12:22:16.474Z,29.93
2022-09-05T12:23:20.932Z,30.03
2022-09-05T12:25:16.751Z,30.23
2022-09-05T12:25:25.332Z,30.15
2022-09-05T12:27:39.581Z,30.30
2022-09-05T12:27:40.469Z,30.16
2022-09-05T12:29:27.109Z,30.53
2022-09-05T12:29:33.533Z,30.63
2022-09-05T12:30:14.197Z,30.72
2022-09-05T12:32:59.493Z,30.85
2022-09-05T12:35:21.132Z,30.94
2022-09-05T12:35:30.688Z,30.88
2022-09-05T12:36:03.952Z,30.70
2022-09-05T12:36:08.150Z,30.65
2022-09-05T12:40:23.689Z,30.55
2022-09-05T12:40:51.920Z,30.63
2022-09-05T12:40:56.295Z,30.50
2022-09-05T12:40:59.291Z,30.30
2022-09-05T12:41:37.434Z,30.40
2022-09-05T12:41:43.449Z,30.28
2022-09-05T12:42:08.264Z,30.00
2022-09-05T12:42:08.472Z,30.50
2022-09-05T12:42:21.660Z,30.40
2022-09-05T12:44:00.761Z,30.53
2022-09-05T12:44:41.824Z,30.54
2022-09-05T12:45:12.592Z,30.62
2022-09-05T12:46:16.264Z,30.57
2022-09-05T12:47:16.804Z,30.50
2022-09-05T12:48:12.410Z,30.48
2022-09-05T12:49:11.441Z,30.59
2022-09-05T12:50:14.922Z,30.62
2022-09-05T12:51:11.381Z,30.57
2022-09-05T12:52:12.363Z,30.59